Time;durP1;ratioP1;P1;durP2;ratioP2;P2;SDS_P1;SDS_P2;PMS_P1;PMS_P2;Temp;Humidity;BMP_temperature;BMP_pressure;BME280_temperature;BME280_humidity;BME280_pressure;Samples;Min_cycle;Max_cycle;Signal;HPM_P1;HPM_P2
2023/08/13 00:00:15;;;;;;;3.88;2.40;;;20.10;99.90;;;;;;5056953;28;20675;-85
2023/08/13 00:02:44;;;;;;;2.55;2.35;;;20.00;99.90;;;;;;5057668;28;20597;-84
2023/08/13 00:05:10;;;;;;;4.05;2.33;;;20.00;99.90;;;;;;5057599;28;20169;-84
2023/08/13 00:07:36;;;;;;;4.47;1.95;;;20.00;99.90;;;;;;5075939;28;20211;-84
2023/08/13 00:10:05;;;;;;;2.50;2.20;;;19.90;99.90;;;;;;5075722;28;20647;-85
2023/08/13 00:12:30;;;;;;;2.30;2.10;;;19.70;99.90;;;;;;5058018;28;20181;-84
2023/08/13 00:14:56;;;;;;;3.90;2.60;;;19.60;99.90;;;;;;5057849;28;20169;-84
2023/08/13 00:17:22;;;;;;;2.53;2.30;;;19.70;99.90;;;;;;5056859;28;20279;-85
2023/08/13 00:19:48;;;;;;;4.40;2.50;;;19.70;99.90;;;;;;5075184;28;20197;-85
2023/08/13 00:22:13;;;;;;;2.95;2.25;;;19.60;99.90;;;;;;5057085;28;20179;-84
2023/08/13 00:24:39;;;;;;;3.13;2.30;;;19.60;99.90;;;;;;5074950;28;20675;-85
2023/08/13 00:27:04;;;;;;;2.92;2.25;;;19.60;99.90;;;;;;5056930;28;20251;-84
2023/08/13 00:29:31;;;;;;;3.40;2.42;;;19.50;99.90;;;;;;5056974;28;20179;-84
2023/08/13 00:31:57;;;;;;;2.10;2.00;;;19.60;99.90;;;;;;5057197;28;20264;-85
2023/08/13 00:34:23;;;;;;;4.65;2.22;;;19.60;99.90;;;;;;5057091;28;20200;-85
2023/08/13 00:36:48;;;;;;;2.88;2.35;;;19.50;99.90;;;;;;5056936;28;20169;-85
2023/08/13 00:39:14;;;;;;;3.30;2.40;;;19.50;99.90;;;;;;5074972;28;20197;-84
2023/08/13 00:41:40;;;;;;;2.70;2.10;;;19.50;99.90;;;;;;5056844;28;20173;-84
2023/08/13 00:44:05;;;;;;;6.10;2.30;;;19.50;99.90;;;;;;5074626;28;20173;-84
2023/08/13 00:46:32;;;;;;;2.70;2.50;;;19.60;99.90;;;;;;5056718;28;20170;-85
2023/08/13 00:48:59;;;;;;;2.97;2.33;;;19.50;99.90;;;;;;5055956;28;20193;-85
2023/08/13 00:51:27;;;;;;;3.58;1.90;;;19.50;99.90;;;;;;5056370;28;20179;-85
2023/08/13 00:53:53;;;;;;;2.47;2.08;;;19.50;99.90;;;;;;5050398;28;20174;-85
2023/08/13 00:56:21;;;;;;;2.67;2.10;;;19.50;99.90;;;;;;5044839;28;20217;-84
2023/08/13 00:58:47;;;;;;;3.55;2.40;;;19.50;99.90;;;;;;5036741;28;20207;-85
2023/08/13 01:01:13;;;;;;;2.30;2.10;;;19.40;99.90;;;;;;5036869;28;20174;-84
2023/08/13 01:03:38;;;;;;;4.70;2.75;;;19.40;99.90;;;;;;5036611;28;20598;-85
2023/08/13 01:06:26;;;;;;;2.50;2.30;;;19.40;99.90;;;;;;5055879;28;20178;-84
2023/08/13 01:09:13;;;;;;;2.92;2.30;;;19.40;99.90;;;;;;5040570;28;20622;-84
2023/08/13 01:11:54;;;;;;;2.78;2.13;;;19.50;99.90;;;;;;5040447;28;20184;-84
2023/08/13 01:14:41;;;;;;;4.43;2.00;;;19.60;99.90;;;;;;5040282;28;20745;-84
2023/08/13 01:17:08;;;;;;;3.60;2.40;;;19.60;99.90;;;;;;5040372;28;20217;-85
2023/08/13 01:19:33;;;;;;;4.43;2.30;;;19.60;99.90;;;;;;5057900;28;20204;-84
2023/08/13 01:21:59;;;;;;;3.30;2.20;;;19.60;99.90;;;;;;5039974;28;20165;-85
2023/08/13 01:24:25;;;;;;;2.40;2.20;;;19.50;99.90;;;;;;5058550;28;20219;-84
2023/08/13 01:27:08;;;;;;;3.17;2.03;;;19.50;99.90;;;;;;5057694;28;20170;-85
2023/08/13 01:29:48;;;;;;;3.15;2.15;;;19.40;99.90;;;;;;5057985;28;20181;-85
2023/08/13 01:32:16;;;;;;;2.30;2.10;;;19.30;99.90;;;;;;5058267;28;20181;-84
2023/08/13 01:34:43;;;;;;;3.50;2.42;;;19.40;99.90;;;;;;5039882;28;20170;-85
2023/08/13 01:37:09;;;;;;;4.28;2.10;;;19.20;99.90;;;;;;5039833;28;20706;-85
2023/08/13 01:39:34;;;;;;;3.05;2.30;;;19.10;99.90;;;;;;5039230;28;20699;-84
2023/08/13 01:42:00;;;;;;;3.55;2.15;;;19.20;99.90;;;;;;5057839;28;20161;-84
2023/08/13 01:44:25;;;;;;;3.75;2.25;;;19.20;99.90;;;;;;5039717;28;20259;-84
2023/08/13 01:46:51;;;;;;;2.55;2.00;;;19.20;99.90;;;;;;5057350;28;20174;-84
2023/08/13 01:49:19;;;;;;;2.33;2.13;;;19.20;99.90;;;;;;5039660;28;20201;-84
2023/08/13 01:51:45;;;;;;;2.95;1.83;;;19.20;99.90;;;;;;5057545;28;20305;-84
2023/08/13 01:54:10;;;;;;;2.00;1.80;;;19.20;99.90;;;;;;5057444;28;20273;-84
2023/08/13 01:56:36;;;;;;;2.30;2.10;;;19.20;99.90;;;;;;5039433;28;20605;-84
2023/08/13 01:59:02;;;;;;;2.65;2.30;;;19.20;99.90;;;;;;5057649;28;20566;-84
2023/08/13 02:01:27;;;;;;;3.63;2.25;;;19.10;99.90;;;;;;5039737;28;20262;-84
2023/08/13 02:03:53;;;;;;;3.58;2.30;;;19.10;99.90;;;;;;5040173;28;20195;-84
2023/08/13 02:06:19;;;;;;;3.35;2.35;;;19.10;99.90;;;;;;5039334;28;20595;-85
2023/08/13 02:08:44;;;;;;;3.80;2.10;;;19.10;99.90;;;;;;5039396;28;20201;-84
2023/08/13 02:11:10;;;;;;;2.67;1.92;;;19.00;99.90;;;;;;5057171;28;20263;-84
2023/08/13 02:13:35;;;;;;;2.42;2.10;;;19.00;99.90;;;;;;5038996;28;20170;-85
2023/08/13 02:16:02;;;;;;;2.90;2.17;;;19.00;99.90;;;;;;5057413;28;20260;-84
2023/08/13 02:18:28;;;;;;;2.17;2.00;;;18.90;99.90;;;;;;5037828;28;20243;-84
2023/08/13 02:20:53;;;;;;;4.97;2.53;;;18.90;99.90;;;;;;5038843;28;20170;-84
2023/08/13 02:23:19;;;;;;;3.72;2.13;;;18.80;99.90;;;;;;5038897;28;20252;-84
2023/08/13 02:25:44;;;;;;;3.50;2.10;;;18.70;99.90;;;;;;5038973;28;20173;-85
2023/08/13 02:28:10;;;;;;;2.25;2.05;;;18.60;99.90;;;;;;5038316;28;20193;-84
2023/08/13 02:30:37;;;;;;;2.13;1.92;;;18.60;99.90;;;;;;5056864;28;20193;-84
2023/08/13 02:33:02;;;;;;;4.28;2.25;;;18.60;99.90;;;;;;5038391;28;20204;-84
2023/08/13 02:35:28;;;;;;;3.00;2.05;;;18.60;99.90;;;;;;5056415;28;20173;-84
2023/08/13 02:37:55;;;;;;;2.05;1.92;;;18.70;99.90;;;;;;5089920;22;20305;-84
2023/08/13 02:40:20;;;;;;;2.63;2.10;;;18.80;99.90;;;;;;5035517;28;20240;-84
2023/08/13 02:42:46;;;;;;;2.33;2.10;;;18.80;99.90;;;;;;5017766;28;20197;-84
2023/08/13 02:45:11;;;;;;;2.22;1.80;;;18.80;99.90;;;;;;5017955;28;20258;-84
2023/08/13 02:47:37;;;;;;;2.45;2.10;;;18.90;99.90;;;;;;5042071;28;20214;-84
2023/08/13 02:50:03;;;;;;;3.92;2.17;;;18.90;99.90;;;;;;5037889;28;20181;-84
2023/08/13 02:52:28;;;;;;;3.17;2.30;;;18.90;99.90;;;;;;5037717;28;20542;-84
2023/08/13 02:54:54;;;;;;;3.28;1.95;;;18.90;99.90;;;;;;5037946;28;20178;-84
2023/08/13 02:57:20;;;;;;;3.13;2.08;;;18.90;99.90;;;;;;5038380;28;20202;-84
2023/08/13 02:59:45;;;;;;;2.78;2.05;;;18.90;99.90;;;;;;5055704;28;20201;-85
2023/08/13 03:02:11;;;;;;;2.20;2.00;;;18.80;99.90;;;;;;5037652;28;20177;-84
2023/08/13 03:04:36;;;;;;;3.08;2.78;;;18.80;99.90;;;;;;5055810;28;20664;-84
2023/08/13 03:07:02;;;;;;;2.55;2.35;;;18.70;99.90;;;;;;5037612;28;20169;-85
2023/08/13 03:09:27;;;;;;;3.13;2.80;;;18.70;99.90;;;;;;5038134;28;20189;-84
2023/08/13 03:11:53;;;;;;;3.50;2.67;;;18.80;99.90;;;;;;5037712;28;20173;-84
2023/08/13 03:14:18;;;;;;;4.10;2.95;;;18.80;99.90;;;;;;5037359;28;20178;-86
2023/08/13 03:16:44;;;;;;;4.03;2.75;;;18.70;99.90;;;;;;5037620;28;20174;-85
2023/08/13 03:19:09;;;;;;;2.60;2.15;;;18.70;99.90;;;;;;5055178;28;20642;-84
2023/08/13 03:21:35;;;;;;;2.33;2.13;;;18.70;99.90;;;;;;5055438;28;20241;-85
2023/08/13 03:24:01;;;;;;;3.92;2.60;;;18.60;99.90;;;;;;5037100;28;20170;-84
2023/08/13 03:26:26;;;;;;;3.27;2.10;;;18.50;99.90;;;;;;5037432;28;20174;-83
2023/08/13 03:28:52;;;;;;;2.33;2.00;;;18.40;99.90;;;;;;5036982;28;20194;-84
2023/08/13 03:31:17;;;;;;;1.90;1.80;;;18.40;99.90;;;;;;5053162;28;20252;-85
2023/08/13 03:33:43;;;;;;;3.40;1.90;;;18.30;99.90;;;;;;5047031;28;20187;-84
2023/08/13 03:36:09;;;;;;;2.53;1.93;;;18.30;99.90;;;;;;5055065;28;20265;-84
2023/08/13 03:38:34;;;;;;;2.53;1.95;;;18.40;99.90;;;;;;5036875;28;20243;-85
2023/08/13 03:41:00;;;;;;;2.13;1.93;;;18.40;99.90;;;;;;5054995;28;20166;-84
2023/08/13 03:43:25;;;;;;;5.38;1.92;;;18.40;99.90;;;;;;5036842;28;20169;-84
2023/08/13 03:45:51;;;;;;;1.90;1.70;;;18.30;99.90;;;;;;5029922;28;20185;-84
2023/08/13 03:48:16;;;;;;;1.83;1.73;;;18.20;99.90;;;;;;5027972;28;20575;-84
2023/08/13 03:50:43;;;;;;;3.07;1.80;;;18.20;99.90;;;;;;5053937;28;20181;-84
2023/08/13 03:53:09;;;;;;;3.63;1.88;;;18.30;99.90;;;;;;5040069;28;20190;-85
2023/08/13 03:55:36;;;;;;;2.00;1.90;;;18.40;99.90;;;;;;5046368;28;20174;-85
2023/08/13 03:58:02;;;;;;;2.72;2.47;;;18.40;99.90;;;;;;5036451;28;20205;-84
2023/08/13 04:00:29;;;;;;;4.60;2.60;;;18.40;99.90;;;;;;5036227;28;20229;-84
2023/08/13 04:02:54;;;;;;;2.78;2.42;;;18.30;99.90;;;;;;5048337;28;20183;-84
2023/08/13 04:05:20;;;;;;;3.03;2.50;;;18.30;99.90;;;;;;5028013;28;20174;-84
2023/08/13 04:07:45;;;;;;;4.53;2.53;;;18.20;99.90;;;;;;5036519;28;20189;-85
2023/08/13 04:10:11;;;;;;;3.70;2.47;;;18.40;99.90;;;;;;5054237;28;20178;-84
2023/08/13 04:12:37;;;;;;;3.00;2.70;;;18.30;99.90;;;;;;5036428;28;20197;-84
2023/08/13 04:15:03;;;;;;;5.40;2.00;;;18.40;99.90;;;;;;5036673;28;20232;-85
2023/08/13 04:17:28;;;;;;;2.00;1.90;;;18.40;99.90;;;;;;5054080;28;20264;-84
2023/08/13 04:19:54;;;;;;;3.05;1.83;;;18.30;99.90;;;;;;5053989;28;20225;-84
2023/08/13 04:22:20;;;;;;;1.97;1.87;;;18.20;99.90;;;;;;5053699;28;20169;-84
2023/08/13 04:24:50;;;;;;;2.10;1.90;;;18.10;99.90;;;;;;5054371;28;20591;-84
2023/08/13 04:27:19;;;;;;;4.10;2.07;;;18.10;99.90;;;;;;5035884;28;20194;-84
2023/08/13 04:29:45;;;;;;;3.10;2.00;;;18.00;99.90;;;;;;5036353;28;20182;-84
2023/08/13 04:32:10;;;;;;;2.40;2.20;;;18.10;99.90;;;;;;5035722;28;20178;-84
2023/08/13 04:34:36;;;;;;;2.27;1.90;;;18.10;99.90;;;;;;5035764;28;20174;-85
2023/08/13 04:37:01;;;;;;;3.23;2.10;;;18.20;99.90;;;;;;5035904;28;20644;-84
2023/08/13 04:39:27;;;;;;;2.73;2.20;;;18.20;99.90;;;;;;5053513;28;20221;-84
2023/08/13 04:41:57;;;;;;;2.67;2.07;;;18.30;99.90;;;;;;5056800;28;20173;-84
2023/08/13 04:44:23;;;;;;;4.50;2.30;;;18.30;99.90;;;;;;5040336;28;20201;-82
2023/08/13 04:46:48;;;;;;;3.85;2.50;;;18.30;99.90;;;;;;5042165;28;20177;-82
2023/08/13 04:49:14;;;;;;;3.30;1.90;;;18.30;99.90;;;;;;5041499;28;20193;-82
2023/08/13 04:51:40;;;;;;;2.65;1.85;;;18.40;99.90;;;;;;5041782;28;20273;-82
2023/08/13 04:54:05;;;;;;;2.27;2.03;;;18.40;99.90;;;;;;5041149;28;20178;-82
2023/08/13 04:56:31;;;;;;;3.17;2.20;;;18.50;99.90;;;;;;5041944;28;20192;-82
2023/08/13 04:58:57;;;;;;;2.63;2.30;;;18.50;99.90;;;;;;5060231;28;20202;-82
2023/08/13 05:01:22;;;;;;;2.92;2.47;;;18.60;99.90;;;;;;5059885;28;20204;-82
2023/08/13 05:03:48;;;;;;;2.70;2.50;;;18.60;99.90;;;;;;5041454;28;20176;-83
2023/08/13 05:06:14;;;;;;;2.50;2.10;;;18.70;99.90;;;;;;5060036;28;20177;-82
2023/08/13 05:08:39;;;;;;;2.88;1.70;;;18.80;99.90;;;;;;5060530;28;20217;-83
2023/08/13 05:11:05;;;;;;;2.95;2.10;;;18.90;99.90;;;;;;5041817;28;20193;-82
2023/08/13 05:13:30;;;;;;;3.75;2.10;;;18.80;99.90;;;;;;5059572;28;20196;-83
2023/08/13 05:15:56;;;;;;;2.20;2.00;;;18.90;99.90;;;;;;5060022;28;20197;-82
2023/08/13 05:18:22;;;;;;;4.03;2.20;;;18.90;99.90;;;;;;5060393;28;20196;-83
2023/08/13 05:20:47;;;;;;;2.20;1.90;;;18.90;99.90;;;;;;5041362;28;20578;-82
2023/08/13 05:23:13;;;;;;;2.45;2.25;;;18.80;99.90;;;;;;5039782;28;20170;-86
2023/08/13 05:25:38;;;;;;;59.85;47.80;;;18.80;99.90;;;;;;5061571;28;20166;-82
2023/08/13 05:28:06;;;;;;;24.90;18.27;;;19.60;99.90;;;;;;5059924;28;20198;-82
2023/08/13 05:30:33;;;;;;;14.55;9.45;;;20.10;99.90;;;;;;5059770;28;20166;-83
2023/08/13 05:32:58;;;;;;;8.93;6.70;;;20.60;99.90;;;;;;5059835;28;20205;-85
2023/08/13 05:35:24;;;;;;;7.00;4.70;;;20.70;99.90;;;;;;5041608;28;20185;-82
2023/08/13 05:37:49;;;;;;;6.22;4.05;;;20.90;99.90;;;;;;5040689;28;20366;-83
2023/08/13 05:40:15;;;;;;;6.82;4.00;;;20.90;99.90;;;;;;5040192;28;20193;-83
2023/08/13 05:42:41;;;;;;;6.47;3.35;;;20.90;99.90;;;;;;5041753;28;20209;-84
2023/08/13 05:45:07;;;;;;;3.75;3.13;;;20.90;99.90;;;;;;5061014;28;20680;-80
2023/08/13 05:47:32;;;;;;;5.63;3.40;;;21.00;99.90;;;;;;5042877;28;20193;-85
2023/08/13 05:49:58;;;;;;;6.40;2.90;;;21.00;99.90;;;;;;5062330;28;20211;-81
2023/08/13 05:52:24;;;;;;;3.10;2.67;;;21.00;99.90;;;;;;5062714;28;20180;-81
2023/08/13 05:54:50;;;;;;;3.30;2.65;;;21.10;99.90;;;;;;5044329;28;20197;-82
2023/08/13 05:57:15;;;;;;;4.05;2.80;;;21.10;99.90;;;;;;5043944;28;20223;-82
2023/08/13 05:59:42;;;;;;;3.50;2.70;;;21.10;99.90;;;;;;5053022;28;20212;-79
2023/08/13 06:02:08;;;;;;;3.10;2.58;;;21.00;99.90;;;;;;5029132;28;20609;-80
2023/08/13 06:04:34;;;;;;;4.32;2.50;;;20.90;99.90;;;;;;5060194;28;20166;-82
2023/08/13 06:07:01;;;;;;;2.85;2.55;;;20.90;99.90;;;;;;5062426;28;20181;-79
2023/08/13 06:09:27;;;;;;;3.53;2.42;;;21.10;99.90;;;;;;5043583;28;20170;-78
2023/08/13 06:11:52;;;;;;;81.85;32.10;;;21.30;99.90;;;;;;5023844;28;20246;-80
2023/08/13 06:14:18;;;;;;;1398.88;534.42;;;21.50;99.90;;;;;;5041454;28;20266;-81
2023/08/13 06:16:43;;;;;;;1233.55;404.05;;;21.40;99.90;;;;;;5043990;28;20167;-81
2023/08/13 06:19:09;;;;;;;849.80;293.75;;;21.20;99.90;;;;;;5040622;28;20205;-81
2023/08/13 06:21:35;;;;;;;615.58;200.43;;;21.30;99.90;;;;;;5025158;28;20174;-81
2023/08/13 06:24:00;;;;;;;298.83;92.78;;;21.30;99.90;;;;;;5024863;28;20654;-80
2023/08/13 06:26:26;;;;;;;238.27;75.70;;;21.10;99.90;;;;;;5042294;28;20166;-80
2023/08/13 06:28:51;;;;;;;143.77;50.58;;;21.20;99.90;;;;;;5041335;28;20736;-81
2023/08/13 06:31:17;;;;;;;74.07;26.80;;;21.30;99.90;;;;;;5024145;28;20163;-81
2023/08/13 06:33:42;;;;;;;12.38;7.18;;;21.20;99.90;;;;;;5042816;28;20169;-81
2023/08/13 06:36:08;;;;;;;104.35;37.63;;;21.40;99.90;;;;;;5037148;28;20236;-81
2023/08/13 06:38:36;;;;;;;44.95;17.90;;;21.20;99.90;;;;;;5036277;28;20205;-80
2023/08/13 06:41:03;;;;;;;22.80;10.65;;;21.40;99.90;;;;;;5036438;28;20209;-84
2023/08/13 06:43:29;;;;;;;4.82;4.35;;;21.30;99.90;;;;;;5060540;28;20169;-83
2023/08/13 06:45:54;;;;;;;20.50;11.95;;;21.10;99.90;;;;;;5061498;28;20655;-83
2023/08/13 06:48:20;;;;;;;18.27;10.75;;;21.00;99.90;;;;;;5061044;28;20197;-83
2023/08/13 06:50:48;;;;;;;4.18;3.70;;;21.10;99.90;;;;;;5041297;28;20229;-82
2023/08/13 06:53:14;;;;;;;14.13;9.50;;;21.10;99.90;;;;;;5060988;28;20181;-83
2023/08/13 06:55:39;;;;;;;3.35;2.97;;;21.30;99.90;;;;;;5052996;28;20683;-82
2023/08/13 06:58:05;;;;;;;7.20;4.97;;;21.10;99.90;;;;;;5036913;28;20194;-83
2023/08/13 07:00:31;;;;;;;2.92;2.70;;;21.30;99.90;;;;;;5042102;28;20224;-82
2023/08/13 07:02:56;;;;;;;12.05;7.43;;;21.30;99.90;;;;;;5060476;28;20177;-82
2023/08/13 07:05:22;;;;;;;3.17;2.88;;;21.30;99.90;;;;;;5059606;28;20180;-82
2023/08/13 07:07:49;;;;;;;3.95;3.40;;;21.30;99.90;;;;;;5040528;28;20656;-83
2023/08/13 07:10:14;;;;;;;10.02;7.60;;;21.00;99.90;;;;;;5060623;28;20593;-84
2023/08/13 07:12:40;;;;;;;3.28;3.00;;;20.90;99.90;;;;;;5059376;28;20173;-81
2023/08/13 07:15:06;;;;;;;5.15;3.55;;;21.20;99.90;;;;;;5039366;28;20180;-81
2023/08/13 07:17:31;;;;;;;3.45;2.60;;;21.10;99.90;;;;;;5061068;28;20224;-81
2023/08/13 07:19:57;;;;;;;4.65;3.85;;;21.10;99.90;;;;;;5042308;28;20224;-81
2023/08/13 07:22:22;;;;;;;3.00;2.70;;;21.10;99.90;;;;;;5043523;28;20219;-81
2023/08/13 07:24:48;;;;;;;3.03;2.60;;;21.10;99.90;;;;;;5042561;28;20174;-81
2023/08/13 07:27:14;;;;;;;3.42;2.75;;;21.10;99.90;;;;;;5041882;28;20173;-81
2023/08/13 07:29:39;;;;;;;4.10;2.55;;;21.10;99.90;;;;;;5060551;28;20200;-81
2023/08/13 07:32:05;;;;;;;3.00;2.40;;;21.20;99.90;;;;;;5041999;28;20247;-83
2023/08/13 07:34:31;;;;;;;3.45;2.30;;;21.20;99.90;;;;;;5041813;28;20181;-83
2023/08/13 07:36:56;;;;;;;2.53;2.33;;;21.10;99.90;;;;;;5042736;28;20169;-83
2023/08/13 07:39:23;;;;;;;2.50;2.30;;;21.10;99.90;;;;;;5060533;28;20205;-82
2023/08/13 07:41:49;;;;;;;3.13;2.35;;;21.20;99.90;;;;;;5042279;28;20174;-83
2023/08/13 07:44:15;;;;;;;2.75;2.38;;;21.30;99.90;;;;;;5060117;28;20165;-83
2023/08/13 07:46:41;;;;;;;3.13;2.22;;;21.30;99.90;;;;;;5060565;28;20177;-83
2023/08/13 07:49:07;;;;;;;2.42;2.22;;;21.30;99.90;;;;;;5060425;28;20246;-84
2023/08/13 07:51:33;;;;;;;2.15;2.00;;;21.30;99.90;;;;;;5059722;28;20648;-83
2023/08/13 07:53:59;;;;;;;2.40;2.10;;;21.30;99.90;;;;;;5059934;28;20177;-83
2023/08/13 07:56:24;;;;;;;2.85;2.22;;;21.20;99.90;;;;;;5059614;28;20552;-84
2023/08/13 07:58:50;;;;;;;2.60;2.10;;;21.30;99.90;;;;;;5040917;28;20197;-83
2023/08/13 08:01:16;;;;;;;2.40;2.20;;;21.30;99.90;;;;;;5034532;28;20181;-81
2023/08/13 08:03:44;;;;;;;2.53;2.30;;;21.40;99.90;;;;;;5058661;28;20178;-84
2023/08/13 08:06:10;;;;;;;2.28;2.08;;;21.50;99.90;;;;;;5041989;28;20196;-84
2023/08/13 08:08:35;;;;;;;2.42;2.13;;;21.50;99.90;;;;;;5027125;28;20190;-83
2023/08/13 08:11:01;;;;;;;2.30;2.10;;;21.70;99.90;;;;;;5021252;28;20268;-84
2023/08/13 08:13:26;;;;;;;2.60;2.10;;;22.00;99.90;;;;;;5021747;28;20178;-83
2023/08/13 08:15:52;;;;;;;3.55;2.03;;;22.00;99.90;;;;;;5040530;28;20185;-83
2023/08/13 08:18:17;;;;;;;1.70;1.60;;;21.80;40.40;;;;;;5025058;28;20190;-83
2023/08/13 08:20:43;;;;;;;2.63;1.70;;;21.90;99.90;;;;;;5056961;28;20231;-86
2023/08/13 08:23:09;;;;;;;3.45;1.83;;;21.90;99.90;;;;;;5037624;28;20228;-83
2023/08/13 08:25:34;;;;;;;2.42;1.67;;;21.90;99.90;;;;;;5045058;28;20170;-83
2023/08/13 08:28:00;;;;;;;2.03;1.80;;;22.00;99.90;;;;;;5063902;28;20193;-83
2023/08/13 08:30:26;;;;;;;2.20;1.95;;;22.10;99.90;;;;;;5045525;28;20169;-83
2023/08/13 08:32:51;;;;;;;4.93;1.90;;;22.20;55.90;;;;;;5063868;28;20205;-84
2023/08/13 08:35:17;;;;;;;2.47;1.88;;;22.30;99.90;;;;;;5063742;28;20570;-84
2023/08/13 08:37:43;;;;;;;3.35;2.22;;;22.30;99.90;;;;;;5064181;28;20208;-83
2023/08/13 08:40:08;;;;;;;1.95;1.80;;;22.30;59.40;;;;;;5063734;28;20205;-83
2023/08/13 08:42:36;;;;;;;1.80;1.70;;;22.40;93.30;;;;;;5043722;28;20219;-84
2023/08/13 08:45:02;;;;;;;1.90;1.60;;;22.30;99.90;;;;;;5056437;28;20668;-83
2023/08/13 08:47:29;;;;;;;1.77;1.58;;;22.30;92.50;;;;;;5042858;28;20190;-83
2023/08/13 08:49:55;;;;;;;2.25;1.80;;;22.30;22.40;;;;;;5025052;28;20178;-84
2023/08/13 08:52:21;;;;;;;1.90;1.70;;;22.20;97.50;;;;;;5043882;28;20182;-84
2023/08/13 08:54:48;;;;;;;2.80;2.00;;;22.20;99.90;;;;;;5056697;28;20180;-84
2023/08/13 08:57:14;;;;;;;1.80;1.70;;;22.10;5.80;;;;;;5045128;28;20174;-83
2023/08/13 08:59:39;;;;;;;2.10;1.80;;;22.10;37.80;;;;;;5045020;28;20251;-84
2023/08/13 09:02:05;;;;;;;2.22;1.80;;;22.00;99.90;;;;;;5062885;28;20169;-85
2023/08/13 09:04:31;;;;;;;1.80;1.70;;;22.20;99.90;;;;;;5044907;28;20196;-83
2023/08/13 09:07:04;;;;;;;2.00;1.73;;;22.20;79.20;;;;;;5061942;28;20173;-83
2023/08/13 09:09:30;;;;;;;1.80;1.70;;;22.40;1.00;;;;;;5044921;28;20177;-83
2023/08/13 09:11:57;;;;;;;2.47;1.80;;;22.40;1.00;;;;;;5044581;28;20180;-83
2023/08/13 09:14:24;;;;;;;1.95;1.70;;;22.60;1.00;;;;;;5044419;28;20176;-83
2023/08/13 09:16:52;;;;;;;1.95;1.60;;;22.90;1.00;;;;;;5041600;28;20197;-83
2023/08/13 09:19:19;;;;;;;2.22;1.67;;;23.10;1.00;;;;;;5042129;28;20201;-85
2023/08/13 09:21:49;;;;;;;2.85;1.70;;;23.00;1.00;;;;;;5041304;28;20170;-84
2023/08/13 09:24:14;;;;;;;1.92;1.60;;;23.20;1.00;;;;;;5040602;28;20541;-84
2023/08/13 09:26:40;;;;;;;1.70;1.60;;;23.40;99.90;;;;;;5039113;28;20182;-85
2023/08/13 09:29:07;;;;;;;2.58;1.60;;;23.30;1.00;;;;;;5039744;28;20205;-83
2023/08/13 09:31:33;;;;;;;2.33;1.50;;;23.40;99.90;;;;;;5054686;28;20177;-84
2023/08/13 09:33:59;;;;;;;3.03;1.85;;;23.70;1.00;;;;;;5049160;28;20549;-83
2023/08/13 09:36:25;;;;;;;2.85;1.67;;;23.70;1.00;;;;;;5042797;28;20189;-84
2023/08/13 09:38:52;;;;;;;2.25;1.55;;;23.90;99.90;;;;;;5051259;28;20229;-84
2023/08/13 09:41:20;;;;;;;2.30;1.85;;;23.70;1.00;;;;;;5064521;28;20656;-82
2023/08/13 09:43:47;;;;;;;1.60;1.50;;;24.00;99.90;;;;;;5045060;28;20170;-84
2023/08/13 09:46:19;;;;;;;1.98;1.70;;;24.10;1.00;;;;;;5045350;28;20181;-82
2023/08/13 09:48:47;;;;;;;1.80;1.60;;;24.00;99.90;;;;;;5045435;28;20247;-83
2023/08/13 09:51:14;;;;;;;1.65;1.55;;;23.80;1.00;;;;;;5045306;28;20173;-82
2023/08/13 09:53:52;;;;;;;1.85;1.58;;;23.80;1.00;;;;;;5062979;28;20166;-82
2023/08/13 09:56:20;;;;;;;2.33;1.70;;;23.90;1.00;;;;;;5048146;28;20174;-82
2023/08/13 09:58:46;;;;;;;2.28;1.88;;;23.90;99.90;;;;;;5043551;28;20199;-82
2023/08/13 10:01:13;;;;;;;1.70;1.60;;;24.00;99.90;;;;;;5026309;28;20665;-82
2023/08/13 10:03:40;;;;;;;1.60;1.50;;;24.10;99.90;;;;;;5043598;28;20201;-82
2023/08/13 10:06:06;;;;;;;2.28;1.40;;;24.10;99.90;;;;;;5041631;28;20201;-84
2023/08/13 10:08:32;;;;;;;2.78;2.03;;;24.30;99.90;;;;;;5038739;28;20189;-87
2023/08/13 10:10:59;;;;;;;1.50;1.40;;;24.40;95.40;;;;;;5055396;28;20181;-86
2023/08/13 10:13:24;;;;;;;1.90;1.60;;;24.50;99.90;;;;;;5032783;28;20184;-84
2023/08/13 10:15:51;;;;;;;1.90;1.70;;;24.60;1.00;;;;;;5032538;28;20256;-85
2023/08/13 10:18:16;;;;;;;3.05;1.80;;;24.90;99.90;;;;;;5058329;28;20185;-85
2023/08/13 10:20:45;;;;;;;2.63;1.60;;;25.20;1.00;;;;;;5057695;28;20208;-87
2023/08/13 10:23:11;;;;;;;1.65;1.55;;;25.30;1.00;;;;;;5037236;28;20174;-85
2023/08/13 10:25:39;;;;;;;2.03;1.50;;;25.50;99.90;;;;;;5039265;28;20169;-83
2023/08/13 10:28:23;;;;;;;1.90;1.33;;;25.50;1.00;;;;;;5060528;28;20197;-84
2023/08/13 10:30:49;;;;;;;1.52;1.40;;;25.60;1.00;;;;;;5061275;28;20177;-85
2023/08/13 10:33:15;;;;;;;1.50;1.40;;;25.60;1.00;;;;;;5040246;28;20219;-83
2023/08/13 10:35:42;;;;;;;1.40;1.20;;;25.50;99.90;;;;;;5038626;28;20209;-88
2023/08/13 10:38:08;;;;;;;2.40;1.38;;;25.40;99.90;;;;;;5034081;28;20639;-85
2023/08/13 10:40:35;;;;;;;1.63;1.30;;;25.30;1.00;;;;;;5033882;28;20210;-85
2023/08/13 10:43:03;;;;;;;1.50;1.40;;;25.40;99.90;;;;;;5025003;28;20260;-86
2023/08/13 10:45:35;;;;;;;1.52;1.30;;;25.40;99.90;;;;;;5046771;28;20261;-85
2023/08/13 10:48:03;;;;;;;1.58;1.40;;;25.30;99.90;;;;;;5055579;28;20676;-83
2023/08/13 10:50:45;;;;;;;2.47;1.50;;;25.20;1.00;;;;;;5041454;28;20178;-83
2023/08/13 10:53:10;;;;;;;2.13;1.50;;;25.10;99.90;;;;;;5030285;28;20645;-83
2023/08/13 10:55:41;;;;;;;1.92;1.35;;;25.20;99.90;;;;;;5023257;28;20193;-84
2023/08/13 10:58:08;;;;;;;3.30;1.52;;;25.30;1.00;;;;;;5022290;28;20194;-83
2023/08/13 11:00:42;;;;;;;1.40;1.30;;;25.40;1.00;;;;;;5021835;28;20202;-84
2023/08/13 11:03:22;;;;;;;2.10;1.40;;;25.40;1.00;;;;;;5041788;28;20662;-82
2023/08/13 11:05:50;;;;;;;1.52;1.35;;;25.20;1.00;;;;;;5027007;28;20264;-84
2023/08/13 11:08:17;;;;;;;1.38;1.23;;;25.10;99.90;;;;;;5040817;28;20197;-83
2023/08/13 11:10:45;;;;;;;1.77;1.50;;;25.20;99.90;;;;;;5039707;28;20177;-83
2023/08/13 11:13:12;;;;;;;2.42;1.40;;;25.30;99.90;;;;;;5022216;28;20241;-83
2023/08/13 11:15:37;;;;;;;1.75;1.42;;;25.40;99.90;;;;;;5039788;28;20184;-83
2023/08/13 11:18:03;;;;;;;1.50;1.40;;;25.50;1.00;;;;;;5040061;28;20226;-83
2023/08/13 11:20:29;;;;;;;1.77;1.38;;;25.40;1.00;;;;;;5054821;28;20213;-82
2023/08/13 11:22:54;;;;;;;1.98;1.30;;;25.40;1.00;;;;;;5054631;28;20171;-85
2023/08/13 11:25:20;;;;;;;2.10;1.30;;;25.40;1.00;;;;;;5027439;28;20172;-83
2023/08/13 11:27:46;;;;;;;1.30;1.20;;;25.30;99.90;;;;;;5047244;28;20263;-82
2023/08/13 11:30:12;;;;;;;2.38;1.27;;;25.30;99.90;;;;;;5038963;28;20170;-83
2023/08/13 11:32:38;;;;;;;1.67;1.45;;;25.30;99.90;;;;;;5054422;28;20201;-83
2023/08/13 11:35:09;;;;;;;2.08;1.40;;;25.20;99.90;;;;;;5021484;28;20244;-83
2023/08/13 11:37:37;;;;;;;1.30;1.20;;;25.20;99.90;;;;;;5018321;28;20217;-83
2023/08/13 11:40:05;;;;;;;1.50;1.40;;;25.10;99.90;;;;;;5018194;28;20206;-83
2023/08/13 11:42:31;;;;;;;2.72;1.40;;;25.10;99.90;;;;;;5048555;28;20190;-83
2023/08/13 11:44:57;;;;;;;1.42;1.30;;;25.10;1.00;;;;;;5024088;28;20166;-83
2023/08/13 11:47:27;;;;;;;2.42;1.35;;;25.10;1.00;;;;;;5036587;28;20192;-83
2023/08/13 11:49:54;;;;;;;2.80;1.52;;;25.10;1.00;;;;;;5036857;28;20189;-82
2023/08/13 11:52:21;;;;;;;1.73;1.42;;;25.10;99.90;;;;;;5019245;28;20172;-83
2023/08/13 11:54:47;;;;;;;1.75;1.50;;;25.30;99.90;;;;;;5039279;28;20181;-83
2023/08/13 11:57:15;;;;;;;1.40;1.30;;;25.30;99.90;;;;;;5052218;28;20170;-83
2023/08/13 11:59:41;;;;;;;1.88;1.50;;;25.30;99.90;;;;;;5046322;28;20217;-83
2023/08/13 12:02:07;;;;;;;2.55;1.50;;;25.30;1.00;;;;;;5037737;28;20169;-84
2023/08/13 12:04:33;;;;;;;2.17;1.40;;;25.20;99.90;;;;;;5059398;28;20169;-82
2023/08/13 12:06:59;;;;;;;3.17;1.55;;;25.40;1.00;;;;;;5058380;28;20188;-83
2023/08/13 12:09:25;;;;;;;3.15;1.67;;;25.40;99.90;;;;;;5041853;28;20173;-84
2023/08/13 12:11:53;;;;;;;2.28;1.70;;;25.30;99.90;;;;;;5060295;28;20185;-83
2023/08/13 12:14:19;;;;;;;1.70;1.55;;;25.20;99.90;;;;;;5055298;28;20178;-83
2023/08/13 12:16:45;;;;;;;1.95;1.60;;;25.10;1.00;;;;;;5048977;28;20683;-84
2023/08/13 12:19:11;;;;;;;3.20;1.63;;;25.20;99.90;;;;;;5049254;28;20260;-84
2023/08/13 12:21:37;;;;;;;2.17;1.52;;;25.10;1.00;;;;;;5034550;28;20178;-84
2023/08/13 12:24:04;;;;;;;3.10;1.50;;;25.10;1.00;;;;;;5051210;28;20201;-83
2023/08/13 12:26:31;;;;;;;2.08;1.55;;;25.10;1.00;;;;;;5017849;28;20170;-84
2023/08/13 12:28:57;;;;;;;1.58;1.48;;;25.00;62.90;;;;;;5035520;28;20186;-84
2023/08/13 12:31:24;;;;;;;2.22;2.03;;;25.00;99.90;;;;;;5017534;28;20208;-82
2023/08/13 12:33:50;;;;;;;2.83;1.65;;;25.00;1.00;;;;;;5049229;28;20182;-82
2023/08/13 12:36:16;;;;;;;4.15;1.80;;;25.00;1.00;;;;;;5031381;28;20288;-82
2023/08/13 12:38:41;;;;;;;1.70;1.60;;;24.90;99.90;;;;;;5025109;28;20203;-82
2023/08/13 12:41:07;;;;;;;1.90;1.60;;;24.80;1.00;;;;;;5015987;28;20206;-82